Waitakeres Weather Go to January February March April May June
September Summaries Go to July August September October November December
Details 2007 2008 2009 2010 2011 2012 2013 2014 2015 2016 2017
Highest Temperature 21.4C 18.8C 18.7C 21.0C 18.6C 20.9C 19.7C 18.9C 19.4C 20.1C 21.7C
Lowest Temperature 4.9C 6.5C 5.5C 6.2C 4.0C 2.1C 3.0C 3.1C 4.9C 4.2C 5.5C
Average Temperature 12.9C 12.9C 12.9C 12.3C 10.6C 11.6C 12.2C 12.2C 11.2C 12.4C 12.2C
Highest Pressure 1034.0 hPa 1038.0 hPa 1033.0 hPa 1029.9 hPa 1034.2 hPa 1031.0 hPa 1029.9 hPa 1028.3 hPa 1032.3 hPa 1028.2 hPa 1019.9 hPa
Lowest Pressure 1001.0 hPa 1001.0 hPa 999.0 hPa 995.3 hPa 994.1 hPa 999.2 hPa 985.2 hPa 997.1 hPa 999.4 hPa 1000.8 hPa 994.2 hPa
Total Rain 75.7 mm 70.4 mm 115.1 mm 145.0 mm 125.8 mm 89.6 mm 180.6 mm 163.0 mm 128.8 mm 148.0 mm 158.4 mm
Most Rain in 24 hrs 12.6 mm 10.3 mm 18.4 mm 18.4 mm 37.6 mm 33.6 mm 37.4 mm 42.4 mm 15.8 mm 28.0 mm 20.8 mm
Heaviest Rain       93.0 mm/hr 144.0 mm/hr 131.0 mm/hr 83.4 mm/hr 109.8 mm/hr 144.0 mm/hr 116.4 mm/hr 116.4 mm/hr
Number of Rain Days 13 days 17 days 16 days 24 days 17 days 20 days 21 days 22 days 22 days 24 days 27 days
Highest Gust       40.2 km/hr 32.2 km/hr 33.8 km/hr 40.2 km/hr 33.8 km/hr 32.2 km/hr 25.7 km/hr 40.2 km/hr
Highest Average Wind       12.9 km/hr 8.7 km/hr 9.7 km/hr 11.3 km/hr 8.0 km/hr 9.7 km/hr 8.0 km/hr 9.7 km/hr
Highest Windrun       134.5 km 116.0 km 119.0 km 92.3 km 91.7 km 72.6 km 76.3 km 66.3 km
Back to Current Weather Go To Rainfall Data
Tabled Data - scroll down 2017 Temperature Pressure Rain Wind
for earlier years Maximum Minimum Average Maximum Minimum Day Total Maximum Rain Rate High Gust Highest Av Run
C C C hPa hPa mm mm/hr time km/h km/h km
01/09/2017 15.8C 8.6C 11.8C 1010.4 hPa 1005.3 hPa 8.0 mm 36.6 mm/hr 13:51 hrs 8.0 km/hr 3.2 km/hr 3.2 km
02/09/2017 14.7C 9.6C 11.5C 1005.4 hPa 998.3 hPa 20.8 mm 57.8 mm/hr 00:12 hrs 14.5 km/hr 3.2 km/hr 23.8 km
03/09/2017 15.3C 8.6C 11.2C 1009.8 hPa 1001.4 hPa 0.2 mm 0.0 mm/hr 00:00 hrs 14.5 km/hr 3.2 km/hr 7.3 km
04/09/2017 16.6C 6.1C 10.8C 1015.2 hPa 1009.6 hPa 0.6 mm 2.2 mm/hr 18:00 hrs 11.3 km/hr 1.6 km/hr 5.9 km
05/09/2017 16.9C 6.8C 12.2C 1018.3 hPa 1014.7 hPa 1.2 mm 2.6 mm/hr 18:25 hrs 16.1 km/hr 3.2 km/hr 11.2 km
06/09/2017 14.9C 12.8C 13.5C 1015.4 hPa 1007.6 hPa 13.2 mm 54.4 mm/hr 05:35 hrs 22.5 km/hr 4.8 km/hr 38.1 km
07/09/2017 17.2C 9.4C 13.3C 1007.7 hPa 1004.0 hPa 9.2 mm 73.4 mm/hr 18:35 hrs 24.1 km/hr 4.8 km/hr 39.5 km
08/09/2017 16.3C 8.4C 12.6C 1008.8 hPa 1004.1 hPa 1.8 mm 46.4 mm/hr 11:51 hrs 22.5 km/hr 3.2 km/hr 19.9 km
09/09/2017 13.0C 6.7C 10.3C 1004.2 hPa 994.8 hPa 17.8 mm 116.4 mm/hr 07:49 hrs 19.3 km/hr 4.8 km/hr 32.7 km
10/09/2017 13.3C 5.5C 8.8C 997.5 hPa 994.2 hPa 6.8 mm 57.4 mm/hr 23:55 hrs 29.0 km/hr 4.8 km/hr 34.0 km
11/09/2017 13.2C 7.0C 9.0C 1007.1 hPa 997.0 hPa 5.6 mm 34.6 mm/hr 21:15 hrs 30.6 km/hr 4.8 km/hr 24.0 km
12/09/2017 15.3C 7.8C 10.8C 1011.8 hPa 1007.0 hPa 2.0 mm 12.8 mm/hr 21:46 hrs 20.9 km/hr 4.8 km/hr 31.3 km
13/09/2017 16.2C 8.3C 12.5C 1013.8 hPa 1011.4 hPa 1.6 mm 12.4 mm/hr 00:20 hrs 17.7 km/hr 3.2 km/hr 13.8 km
14/09/2017 17.4C 13.7C 15.0C 1019.3 hPa 1012.3 hPa 0.4 mm 6.4 mm/hr 20:58 hrs 17.7 km/hr 3.2 km/hr 30.0 km
15/09/2017 21.7C 11.8C 15.8C 1018.9 hPa 1005.8 hPa 8.4 mm 96.8 mm/hr 23:35 hrs 29.0 km/hr 6.4 km/hr 39.8 km
16/09/2017 16.4C 8.3C 12.4C 1017.4 hPa 1006.3 hPa 4.8 mm 48.8 mm/hr 06:08 hrs 20.9 km/hr 3.2 km/hr 21.2 km
17/09/2017 17.3C 8.1C 12.1C 1017.6 hPa 1007.6 hPa 12.6 mm 92.2 mm/hr 19:32 hrs 24.1 km/hr 6.4 km/hr 29.7 km
18/09/2017 13.4C 7.7C 9.7C 1008.5 hPa 1003.6 hPa 7.0 mm 26.6 mm/hr 12:45 hrs 19.3 km/hr 3.2 km/hr 15.5 km
19/09/2017 15.9C 6.7C 10.5C 1012.2 hPa 1002.3 hPa 4.8 mm 34.6 mm/hr 01:40 hrs 16.1 km/hr 1.6 km/hr 8.7 km
20/09/2017 17.8C 6.4C 11.7C 1013.6 hPa 1010.7 hPa 0.0 mm 0.0 mm/hr 00:00 hrs 11.3 km/hr 1.6 km/hr 2.1 km
21/09/2017 17.2C 8.0C 12.0C 1010.9 hPa 1006.4 hPa 2.4 mm 7.8 mm/hr 03:49 hrs 12.9 km/hr 1.6 km/hr 6.5 km
22/09/2017 15.6C 7.9C 11.1C 1012.1 hPa 1004.5 hPa 6.8 mm 19.2 mm/hr 17:19 hrs 19.3 km/hr 3.2 km/hr 10.0 km
23/09/2017 17.6C 9.4C 12.8C 1018.4 hPa 1011.8 hPa 0.6 mm 8.8 mm/hr 06:40 hrs 16.1 km/hr 3.2 km/hr 13.0 km
24/09/2017 18.1C 8.6C 13.4C 1019.8 hPa 1017.8 hPa 0.0 mm 0.0 mm/hr 00:00 hrs 11.3 km/hr 1.6 km/hr 1.0 km
25/09/2017 17.2C 10.9C 14.3C 1019.9 hPa 1016.6 hPa 0.0 mm 0.0 mm/hr 00:00 hrs 24.1 km/hr 4.8 km/hr 29.3 km
26/09/2017 18.3C 13.2C 15.1C 1017.0 hPa 1009.7 hPa 13.2 mm 57.0 mm/hr 15:36 hrs 40.2 km/hr 9.7 km/hr 66.3 km
27/09/2017 18.1C 9.3C 13.7C 1012.5 hPa 1008.8 hPa 4.2 mm 19.8 mm/hr 04:40 hrs 12.9 km/hr 1.6 km/hr 1.5 km
28/09/2017 18.3C 7.9C 12.2C 1012.6 hPa 1010.5 hPa 0.2 mm 0.0 mm/hr 00:00 hrs 12.9 km/hr 3.2 km/hr 11.1 km
29/09/2017 17.4C 8.3C 12.2C 1012.2 hPa 1008.3 hPa 0.6 mm 0.0 mm/hr 00:00 hrs 11.3 km/hr 3.2 km/hr 2.7 km
30/09/2017 16.9C 9.2C 12.6C 1008.4 hPa 1002.5 hPa 3.6 mm 24.2 mm/hr 20:37 hrs 11.3 km/hr 3.2 km/hr 8.0 km
Back to top                        
Tabled Data - scroll down 2016 Temperature Pressure Rain Wind
for earlier years Maximum Minimum Average Maximum Minimum Day Total Maximum Rain Rate High Gust Highest Av Run
C C C hPa hPa mm mm/hr time km/h km/h km
01/09/2016 14.3C 6.8C 10.4C 1028.2 hPa 1023.1 hPa 2.8 mm 11.0 mm/hr 13:24 hrs 9.7 km/hr 1.6 km/hr 0.3 km
02/09/2016 17.7C 9.1C 12.9C 1023.2 hPa 1018.9 hPa 0.2 mm 0.0 mm/hr 00:00 hrs 19.3 km/hr 3.2 km/hr 15.6 km
03/09/2016 16.1C 12.6C 14.0C 1021.7 hPa 1018.7 hPa 3.4 mm 4.0 mm/hr 16:22 hrs 12.9 km/hr 3.2 km/hr 3.5 km
04/09/2016 19.8C 13.3C 14.9C 1021.3 hPa 1013.4 hPa 13.6 mm 21.6 mm/hr 16:38 hrs 25.7 km/hr 6.4 km/hr 27.0 km
05/09/2016 16.1C 10.3C 13.0C 1015.7 hPa 1012.1 hPa 3.6 mm 116.4 mm/hr 19:50 hrs 16.1 km/hr 3.2 km/hr 32.9 km
06/09/2016 15.7C 6.6C 11.8C 1023.5 hPa 1015.6 hPa 0.4 mm 0.0 mm/hr 00:00 hrs 22.5 km/hr 3.2 km/hr 23.3 km
07/09/2016 16.0C 6.6C 11.0C 1023.7 hPa 1013.9 hPa 2.8 mm 68.2 mm/hr 17:07 hrs 19.3 km/hr 4.8 km/hr 29.4 km
08/09/2016 10.8C 5.9C 8.0C 1018.1 hPa 1010.8 hPa 3.6 mm 70.2 mm/hr 06:51 hrs 24.1 km/hr 4.8 km/hr 44.2 km
09/09/2016 12.6C 4.9C 8.4C 1021.6 hPa 1017.7 hPa 0.0 mm 0.0 mm/hr 00:00 hrs 17.7 km/hr 3.2 km/hr 17.7 km
10/09/2016 15.2C 5.5C 9.9C 1021.4 hPa 1018.0 hPa 0.0 mm 0.0 mm/hr 00:00 hrs 12.9 km/hr 3.2 km/hr 10.8 km
11/09/2016 17.0C 4.2C 9.5C 1025.3 hPa 1021.3 hPa 0.0 mm 0.0 mm/hr 00:00 hrs 9.7 km/hr 3.2 km/hr 3.3 km
12/09/2016 16.0C 5.3C 9.7C 1027.2 hPa 1024.6 hPa 0.0 mm 0.0 mm/hr 00:00 hrs 9.7 km/hr 3.2 km/hr 0.9 km
13/09/2016 17.6C 5.9C 11.5C 1028.0 hPa 1025.7 hPa 0.0 mm 0.0 mm/hr 00:00 hrs 11.3 km/hr 1.6 km/hr 2.5 km
14/09/2016 18.3C 7.9C 13.0C 1026.9 hPa 1024.2 hPa 0.0 mm 0.0 mm/hr 00:00 hrs 12.9 km/hr 3.2 km/hr 6.7 km
15/09/2016 14.1C 11.7C 12.8C 1025.4 hPa 1023.2 hPa 28.0 mm 14.0 mm/hr 04:52 hrs 17.7 km/hr 4.8 km/hr 14.2 km
16/09/2016 19.9C 11.9C 15.0C 1025.9 hPa 1019.5 hPa 0.4 mm 0.0 mm/hr 00:00 hrs 17.7 km/hr 4.8 km/hr 16.3 km
17/09/2016 15.8C 12.1C 13.7C 1019.8 hPa 1005.2 hPa 8.4 mm 11.0 mm/hr 19:10 hrs 25.7 km/hr 8.0 km/hr 43.3 km
18/09/2016 16.3C 11.4C 12.9C 1011.3 hPa 1002.1 hPa 6.6 mm 7.2 mm/hr 03:35 hrs 24.1 km/hr 6.4 km/hr 58.7 km
19/09/2016 17.3C 8.5C 12.4C 1015.3 hPa 1011.3 hPa 0.6 mm 0.0 mm/hr 00:00 hrs 12.9 km/hr 3.2 km/hr 6.5 km
20/09/2016 14.7C 8.4C 11.5C 1015.2 hPa 1008.4 hPa 10.2 mm 7.2 mm/hr 21:28 hrs 22.5 km/hr 4.8 km/hr 32.5 km
21/09/2016 13.8C 11.2C 12.1C 1011.2 hPa 1006.3 hPa 8.6 mm 7.4 mm/hr 01:14 hrs 24.1 km/hr 8.0 km/hr 58.9 km
22/09/2016 17.2C 9.6C 13.3C 1012.0 hPa 1009.7 hPa 0.6 mm 0.0 mm/hr 00:00 hrs 9.7 km/hr 3.2 km/hr 5.6 km
23/09/2016 17.0C 13.1C 14.4C 1013.1 hPa 1011.2 hPa 7.0 mm 12.4 mm/hr 02:08 hrs 17.7 km/hr 4.8 km/hr 28.8 km
24/09/2016 14.1C 11.9C 13.2C 1012.4 hPa 1005.6 hPa 10.0 mm 14.6 mm/hr 12:56 hrs 20.9 km/hr 6.4 km/hr 76.3 km
25/09/2016 15.1C 12.9C 13.7C 1005.7 hPa 1000.8 hPa 14.8 mm 11.2 mm/hr 05:01 hrs 20.9 km/hr 6.4 km/hr 34.8 km
26/09/2016 18.3C 11.3C 13.7C 1005.2 hPa 1003.0 hPa 0.6 mm 0.0 mm/hr 00:00 hrs 19.3 km/hr 4.8 km/hr 30.5 km
27/09/2016 19.9C 11.4C 14.4C 1003.8 hPa 1001.3 hPa 1.0 mm 1.0 mm/hr 10:16 hrs 17.7 km/hr 4.8 km/hr 31.2 km
28/09/2016 15.2C 10.8C 12.7C 1003.7 hPa 1002.0 hPa 19.0 mm 26.0 mm/hr 15:13 hrs 8.0 km/hr 1.6 km/hr 0.1 km
29/09/2016 20.1C 9.7C 13.7C 1010.0 hPa 1003.1 hPa 0.2 mm 0.0 mm/hr 00:00 hrs 16.1 km/hr 4.8 km/hr 14.3 km
30/09/2016 19.7C 10.5C 14.1C 1018.5 hPa 1010.0 hPa 1.6 mm 6.0 mm/hr 13:08 hrs 17.7 km/hr 6.4 km/hr 30.1 km
Back to top                        
Tabled Data - scroll down 2015 Temperature Pressure Rain Wind
for earlier years Maximum Minimum Average Maximum Minimum Day Total Maximum Rain Rate High Gust Highest Av Run
C C C hPa hPa mm mm/hr time km/h km/h km
01/09/2015 17.3C 12.5C 13.8C 1010.5 hPa 1005.9 hPa 15.8 mm 68.2 mm/hr 07:52 hrs 32.2 km/hr 9.7 km/hr 61.3 km
02/09/2015 17.4C 10.8C 13.5C 1009.6 hPa 999.4 hPa 6.6 mm 46.0 mm/hr 22:45 hrs 27.4 km/hr 6.4 km/hr 54.1 km
03/09/2015 14.2C 8.7C 11.3C 1012.5 hPa 1000.0 hPa 6.4 mm 57.4 mm/hr 06:57 hrs 22.5 km/hr 6.4 km/hr 72.6 km
04/09/2015 12.6C 8.9C 10.2C 1012.6 hPa 1005.1 hPa 6.6 mm 8.2 mm/hr 15:00 hrs 8.0 km/hr 1.6 km/hr 0.5 km
05/09/2015 14.3C 8.6C 10.5C 1008.1 hPa 1003.6 hPa 8.6 mm 5.4 mm/hr 01:39 hrs 14.5 km/hr 3.2 km/hr 15.1 km
06/09/2015 14.4C 6.9C 10.2C 1010.7 hPa 1006.0 hPa 7.4 mm 24.8 mm/hr 08:02 hrs 17.7 km/hr 4.8 km/hr 25.6 km
07/09/2015 14.9C 5.7C 9.6C 1018.4 hPa 1010.2 hPa 2.0 mm 24.0 mm/hr 03:42 hrs 16.1 km/hr 3.2 km/hr 20.5 km
08/09/2015 16.2C 6.1C 10.8C 1023.8 hPa 1017.8 hPa 0.0 mm 0.0 mm/hr 00:00 hrs 17.7 km/hr 3.2 km/hr 14.2 km
09/09/2015 15.4C 6.4C 10.5C 1025.3 hPa 1019.5 hPa 0.0 mm 0.0 mm/hr 00:00 hrs 12.9 km/hr 3.2 km/hr 5.9 km
10/09/2015 13.1C 7.6C 10.5C 1019.6 hPa 1005.1 hPa 11.2 mm 99.4 mm/hr 22:32 hrs 30.6 km/hr 6.4 km/hr 37.5 km
11/09/2015 14.1C 7.9C 10.5C 1014.0 hPa 1007.7 hPa 12.8 mm 144.0 mm/hr 22:34 hrs 27.4 km/hr 6.4 km/hr 67.3 km
12/09/2015 13.6C 6.0C 9.8C 1020.7 hPa 1011.4 hPa 0.4 mm 0.0 mm/hr 00:00 hrs 16.1 km/hr 4.8 km/hr 30.4 km
13/09/2015 16.7C 7.9C 11.9C 1023.2 hPa 1018.9 hPa 0.2 mm 0.0 mm/hr 00:00 hrs 17.7 km/hr 4.8 km/hr 27.7 km
14/09/2015 16.7C 6.3C 10.5C 1025.5 hPa 1022.9 hPa 0.0 mm 0.0 mm/hr 00:00 hrs 14.5 km/hr 3.2 km/hr 7.4 km
15/09/2015 14.3C 8.8C 11.2C 1023.8 hPa 1020.6 hPa 1.0 mm 6.4 mm/hr 23:41 hrs 16.1 km/hr 3.2 km/hr 16.1 km
16/09/2015 15.3C 9.5C 11.8C 1022.2 hPa 1020.3 hPa 1.0 mm 1.0 mm/hr 04:15 hrs 14.5 km/hr 3.2 km/hr 10.9 km
17/09/2015 19.4C 6.8C 13.0C 1021.5 hPa 1017.6 hPa 0.0 mm 0.0 mm/hr 00:00 hrs 17.7 km/hr 4.8 km/hr 17.0 km
18/09/2015 16.6C 9.1C 13.1C 1017.7 hPa 1013.4 hPa 5.0 mm 11.4 mm/hr 09:36 hrs 12.9 km/hr 3.2 km/hr 12.0 km
19/09/2015 16.8C 8.3C 11.8C 1015.7 hPa 1010.3 hPa 4.8 mm 13.2 mm/hr 07:17 hrs 14.5 km/hr 3.2 km/hr 1.8 km
20/09/2015 12.6C 7.1C 9.7C 1010.7 hPa 1004.9 hPa 8.8 mm 32.8 mm/hr 10:36 hrs 19.3 km/hr 3.2 km/hr 2.5 km
21/09/2015 14.7C 7.1C 9.5C 1008.3 hPa 1006.2 hPa 0.2 mm 0.0 mm/hr 00:00 hrs 24.1 km/hr 3.2 km/hr 25.0 km
22/09/2015 12.6C 7.5C 9.3C 1007.1 hPa 1004.6 hPa 10.2 mm 26.8 mm/hr 13:33 hrs 19.3 km/hr 3.2 km/hr 9.3 km
23/09/2015 15.3C 8.1C 11.1C 1006.5 hPa 1004.4 hPa 9.6 mm 22.0 mm/hr 18:21 hrs 12.9 km/hr 3.2 km/hr 15.4 km
24/09/2015 17.1C 9.4C 12.2C 1008.7 hPa 1004.7 hPa 3.0 mm 31.6 mm/hr 23:13 hrs 12.9 km/hr 3.2 km/hr 5.1 km
25/09/2015 17.6C 7.7C 11.9C 1013.4 hPa 1008.1 hPa 0.2 mm 0.0 mm/hr 00:00 hrs 17.7 km/hr 4.8 km/hr 13.9 km
26/09/2015 19.2C 7.1C 11.6C 1022.6 hPa 1013.2 hPa 0.0 mm 0.0 mm/hr 00:00 hrs 12.9 km/hr 3.2 km/hr 14.0 km
27/09/2015 19.3C 4.9C 11.7C 1024.8 hPa 1022.3 hPa 0.0 mm 0.0 mm/hr 00:00 hrs 14.5 km/hr 4.8 km/hr 11.3 km
28/09/2015 17.6C 7.9C 11.3C 1027.5 hPa 1023.5 hPa 7.0 mm 31.6 mm/hr 06:11 hrs 9.7 km/hr 1.6 km/hr 1.8 km
29/09/2015 18.7C 5.7C 11.1C 1032.0 hPa 1027.4 hPa 0.0 mm 0.0 mm/hr 00:00 hrs 11.3 km/hr 3.2 km/hr 7.8 km
30/09/2015 19.3C 6.3C 12.1C 1032.3 hPa 1029.5 hPa 0.0 mm 0.0 mm/hr 00:00 hrs 16.1 km/hr 4.8 km/hr 24.2 km
Back to top                        
Tabled Data - scroll down 2014 Temperature Pressure Rain Wind
for earlier years Maximum Minimum Average Maximum Minimum Day Total Maximum Rain Rate High Gust Highest Av Run
C C C hPa hPa mm mm/hr time km/h km/h km
01/09/2014 10.7C 8.6C 9.7C 1015.3 hPa 1009.7 hPa 42.4 mm 10.8 mm/hr 00:39 hrs 19.3 km/hr 4.8 km/hr 30.9 km
02/09/2014 18.7C 9.2C 12.7C 1011.4 hPa 1008.4 hPa 0.2 mm 0.0 mm/hr 00:00 hrs 11.3 km/hr 3.2 km/hr 6.9 km
03/09/2014 16.4C 9.0C 12.6C 1013.3 hPa 1010.6 hPa 0.0 mm 0.0 mm/hr 00:00 hrs 8.0 km/hr 1.6 km/hr 2.6 km
04/09/2014 16.8C 8.3C 12.2C 1012.3 hPa 1004.0 hPa 10.8 mm 65.8 mm/hr 20:34 hrs 20.9 km/hr 6.4 km/hr 52.3 km
05/09/2014 18.9C 11.2C 13.6C 1004.2 hPa 1001.2 hPa 14.0 mm 90.0 mm/hr 03:50 hrs 20.9 km/hr 6.4 km/hr 20.8 km
06/09/2014 15.3C 11.3C 13.0C 1010.2 hPa 1000.9 hPa 5.0 mm 26.8 mm/hr 19:08 hrs 12.9 km/hr 3.2 km/hr 18.3 km
07/09/2014 18.8C 8.3C 12.6C 1020.9 hPa 1010.2 hPa 0.0 mm 0.0 mm/hr 00:00 hrs 14.5 km/hr 4.8 km/hr 14.9 km
08/09/2014 16.5C 7.8C 11.2C 1025.9 hPa 1020.7 hPa 0.2 mm 0.0 mm/hr 00:00 hrs 16.1 km/hr 3.2 km/hr 19.0 km
09/09/2014 17.3C 7.6C 11.8C 1028.3 hPa 1025.3 hPa 0.2 mm 0.0 mm/hr 00:00 hrs 16.1 km/hr 4.8 km/hr 26.6 km
10/09/2014 17.2C 9.3C 12.4C 1027.5 hPa 1025.4 hPa 0.0 mm 0.0 mm/hr 00:00 hrs 19.3 km/hr 4.8 km/hr 34.2 km
11/09/2014 18.2C 10.3C 13.0C 1027.0 hPa 1024.3 hPa 0.0 mm 0.0 mm/hr 00:00 hrs 14.5 km/hr 4.8 km/hr 30.3 km
12/09/2014 14.7C 11.7C 13.7C 1024.9 hPa 1013.8 hPa 8.0 mm 21.2 mm/hr 19:35 hrs 33.8 km/hr 6.4 km/hr 83.5 km
13/09/2014 15.8C 10.9C 13.3C 1013.8 hPa 1003.8 hPa 11.4 mm 49.8 mm/hr 23:41 hrs 12.9 km/hr 4.8 km/hr 9.8 km
14/09/2014 15.1C 9.8C 11.8C 1013.6 hPa 1005.3 hPa 3.8 mm 24.8 mm/hr 13:34 hrs 24.1 km/hr 6.4 km/hr 91.7 km
15/09/2014 16.5C 8.5C 12.2C 1015.5 hPa 1013.2 hPa 2.6 mm 100.2 mm/hr 18:57 hrs 11.3 km/hr 3.2 km/hr 10.2 km
16/09/2014 16.6C 9.4C 12.5C 1013.3 hPa 1009.7 hPa 11.2 mm 84.8 mm/hr 07:50 hrs 19.3 km/hr 4.8 km/hr 37.5 km
17/09/2014 16.4C 7.9C 11.5C 1017.0 hPa 1011.8 hPa 0.2 mm 0.0 mm/hr 00:00 hrs 14.5 km/hr 3.2 km/hr 25.9 km
18/09/2014 16.7C 7.4C 11.8C 1017.8 hPa 1009.1 hPa 0.8 mm 3.4 mm/hr 10:47 hrs 20.9 km/hr 3.2 km/hr 6.1 km
19/09/2014 16.6C 9.1C 13.3C 1009.1 hPa 1003.1 hPa 11.6 mm 109.8 mm/hr 06:54 hrs 29.0 km/hr 6.4 km/hr 33.6 km
20/09/2014 15.2C 7.6C 11.3C 1004.1 hPa 997.1 hPa 15.4 mm 64.4 mm/hr 09:35 hrs 29.0 km/hr 6.4 km/hr 40.0 km
21/09/2014 14.4C 5.9C 9.6C 1004.1 hPa 997.7 hPa 4.8 mm 33.2 mm/hr 12:47 hrs 20.9 km/hr 4.8 km/hr 29.2 km
22/09/2014 12.9C 5.2C 9.8C 1015.3 hPa 998.7 hPa 9.0 mm 27.6 mm/hr 08:46 hrs 27.4 km/hr 8.0 km/hr 74.0 km
23/09/2014 16.2C 3.1C 10.3C 1020.2 hPa 1015.3 hPa 0.0 mm 0.0 mm/hr 00:00 hrs 22.5 km/hr 4.8 km/hr 47.1 km
24/09/2014 16.2C 10.9C 13.1C 1020.2 hPa 1017.8 hPa 0.0 mm 0.0 mm/hr 00:00 hrs 19.3 km/hr 4.8 km/hr 61.8 km
25/09/2014 16.9C 9.0C 12.2C 1020.3 hPa 1018.8 hPa 0.0 mm 0.0 mm/hr 00:00 hrs 12.9 km/hr 3.2 km/hr 21.4 km
26/09/2014 16.4C 8.2C 12.3C 1019.2 hPa 1015.6 hPa 0.0 mm 0.0 mm/hr 00:00 hrs 11.3 km/hr 3.2 km/hr 8.8 km
27/09/2014 18.2C 9.1C 13.3C 1015.6 hPa 1005.8 hPa 0.8 mm 0.0 mm/hr 00:00 hrs 12.9 km/hr 4.8 km/hr 14.2 km
28/09/2014 16.8C 12.8C 14.4C 1008.2 hPa 1004.1 hPa 2.2 mm 3.0 mm/hr 20:04 hrs 32.2 km/hr 6.4 km/hr 65.0 km
29/09/2014 18.3C 9.3C 13.0C 1015.8 hPa 1007.9 hPa 6.8 mm 17.8 mm/hr 05:23 hrs 27.4 km/hr 8.0 km/hr 85.4 km
30/09/2014 18.6C 9.0C 12.8C 1017.1 hPa 1013.8 hPa 1.6 mm 4.4 mm/hr 02:04 hrs 12.9 km/hr 3.2 km/hr 25.2 km
Back to top                        
Tabled Data - scroll down 2013 Temperature Pressure Rain Wind
for earlier years Maximum Minimum Average Maximum Minimum Day Total Maximum Rain Rate High Gust Highest Av Run
C C C hPa hPa mm mm/hr time km/h km/h km
01/09/2013 15.3C 5.8C 10.2C 1028.7 hPa 1025.6 hPa 0.0 mm 0.0 mm/hr 00:00 hrs 19.3 km/hr 4.8 km/hr 27.2 km
02/09/2013 16.1C 5.7C 9.8C 1029.9 hPa 1026.6 hPa 0.0 mm 0.0 mm/hr 00:00 hrs 12.9 km/hr 4.8 km/hr 18.8 km
03/09/2013 16.1C 5.1C 9.2C 1028.8 hPa 1024.2 hPa 0.0 mm 0.0 mm/hr 00:00 hrs 12.9 km/hr 1.6 km/hr 9.3 km
04/09/2013 14.7C 5.1C 8.5C 1024.2 hPa 1006.7 hPa 32.0 mm 77.8 mm/hr 14:31 hrs 16.1 km/hr 4.8 km/hr 15.9 km
05/09/2013 13.9C 6.0C 8.9C 1017.8 hPa 1006.3 hPa 4.6 mm 7.6 mm/hr 08:32 hrs 22.5 km/hr 8.0 km/hr 44.1 km
06/09/2013 15.4C 3.1C 9.4C 1022.0 hPa 1017.5 hPa 0.0 mm 0.0 mm/hr 00:00 hrs 14.5 km/hr 4.8 km/hr 20.3 km
07/09/2013 16.4C 9.7C 12.9C 1021.4 hPa 1017.1 hPa 6.4 mm 9.2 mm/hr 17:00 hrs 16.1 km/hr 4.8 km/hr 36.9 km
08/09/2013 16.3C 11.3C 13.4C 1017.2 hPa 1013.7 hPa 8.2 mm 14.8 mm/hr 04:04 hrs 16.1 km/hr 4.8 km/hr 46.3 km
09/09/2013 16.3C 8.3C 12.1C 1019.1 hPa 1012.2 hPa 0.6 mm 0.0 mm/hr 00:00 hrs 17.7 km/hr 4.8 km/hr 52.2 km
10/09/2013 16.4C 7.8C 12.1C 1022.2 hPa 1018.9 hPa 0.0 mm 0.0 mm/hr 00:00 hrs 17.7 km/hr 3.2 km/hr 29.7 km
11/09/2013 17.7C 10.9C 14.3C 1019.2 hPa 1015.1 hPa 1.8 mm 2.4 mm/hr 04:43 hrs 32.2 km/hr 9.7 km/hr 87.7 km
12/09/2013 15.5C 13.7C 14.7C 1015.3 hPa 1009.6 hPa 19.8 mm 9.4 mm/hr 06:36 hrs 22.5 km/hr 8.0 km/hr 64.9 km
13/09/2013 17.4C 8.7C 12.8C 1010.5 hPa 1001.8 hPa 6.6 mm 30.8 mm/hr 22:53 hrs 9.7 km/hr 1.6 km/hr 9.3 km
14/09/2013 14.7C 7.7C 10.4C 1011.2 hPa 999.1 hPa 6.6 mm 49.2 mm/hr 17:41 hrs 17.7 km/hr 4.8 km/hr 38.7 km
15/09/2013 15.6C 6.6C 9.6C 1017.6 hPa 1010.9 hPa 3.2 mm 25.6 mm/hr 14:19 hrs 12.9 km/hr 3.2 km/hr 14.0 km
16/09/2013 16.3C 6.6C 10.8C 1017.7 hPa 1011.1 hPa 0.0 mm 0.0 mm/hr 00:00 hrs 12.9 km/hr 4.8 km/hr 20.1 km
17/09/2013 15.6C 7.6C 11.5C 1021.1 hPa 1009.7 hPa 0.0 mm 0.0 mm/hr 00:00 hrs 20.9 km/hr 6.4 km/hr 34.1 km
18/09/2013 15.2C 3.0C 9.2C 1026.9 hPa 1021.0 hPa 0.0 mm 0.0 mm/hr 00:00 hrs 19.3 km/hr 4.8 km/hr 29.9 km
19/09/2013 16.2C 5.6C 10.8C 1026.7 hPa 1019.9 hPa 7.0 mm 4.2 mm/hr 19:26 hrs 22.5 km/hr 6.4 km/hr 39.7 km
20/09/2013 19.7C 11.8C 15.2C 1020.0 hPa 1013.9 hPa 2.8 mm 36.2 mm/hr 09:49 hrs 19.3 km/hr 4.8 km/hr 32.5 km
21/09/2013 18.8C 11.6C 15.3C 1016.1 hPa 1009.9 hPa 4.8 mm 34.8 mm/hr 20:37 hrs 22.5 km/hr 9.7 km/hr 53.3 km
22/09/2013 18.3C 12.3C 14.9C 1014.6 hPa 1008.0 hPa 15.0 mm 41.0 mm/hr 00:41 hrs 20.9 km/hr 6.4 km/hr 55.2 km
23/09/2013 18.4C 11.9C 14.6C 1017.7 hPa 1014.3 hPa 0.0 mm 0.0 mm/hr 00:00 hrs 19.3 km/hr 4.8 km/hr 30.9 km
24/09/2013 15.0C 11.6C 12.7C 1016.5 hPa 985.2 hPa 37.4 mm 30.0 mm/hr 21:41 hrs 30.6 km/hr 11.3 km/hr 79.1 km
25/09/2013 14.5C 12.2C 13.5C 997.4 hPa 985.5 hPa 12.6 mm 13.2 mm/hr 23:41 hrs 40.2 km/hr 11.3 km/hr 90.4 km
26/09/2013 16.6C 12.2C 13.5C 1011.5 hPa 997.4 hPa 3.8 mm 12.4 mm/hr 01:40 hrs 22.5 km/hr 6.4 km/hr 92.3 km
27/09/2013 18.8C 13.1C 15.1C 1013.6 hPa 1007.9 hPa 0.4 mm 1.0 mm/hr 23:23 hrs 17.7 km/hr 3.2 km/hr 41.9 km
28/09/2013 16.8C 11.6C 13.3C 1008.4 hPa 1005.7 hPa 1.2 mm 18.8 mm/hr 06:32 hrs 20.9 km/hr 4.8 km/hr 85.0 km
29/09/2013 17.6C 10.0C 13.3C 1009.8 hPa 1003.9 hPa 0.6 mm 3.6 mm/hr 04:57 hrs 17.7 km/hr 4.8 km/hr 41.7 km
30/09/2013 16.3C 11.4C 13.1C 1011.4 hPa 1001.9 hPa 5.2 mm 83.4 mm/hr 04:27 hrs 29.0 km/hr 8.0 km/hr 80.3 km
Back to top                        
Tabled Data - scroll down 2012 Temperature Pressure Rain Wind
for earlier years Maximum Minimum Average Maximum Minimum Day Total Maximum Rain Rate High Gust Highest Av Run
C C C hPa hPa mm mm/hr time km/h km/h km
01/09/2012 14.6C 7.5C 10.9C 1027.2 hPa 1024.1 hPa 0.0 mm 0.0 mm/hr 00:00 hrs 20.9 km/hr 8.0 km/hr 62.0 km
02/09/2012 15.8C 10.6C 12.9C 1025.7 hPa 1013.8 hPa 0.0 mm 0.0 mm/hr 00:00 hrs 29.0 km/hr 9.7 km/hr 119.0 km
03/09/2012 13.6C 9.1C 12.2C 1013.8 hPa 999.2 hPa 33.6 mm 75.8 mm/hr 21:36 hrs 24.1 km/hr 8.0 km/hr 79.4 km
04/09/2012 14.9C 9.1C 11.2C 1008.7 hPa 1002.5 hPa 5.0 mm 61.0 mm/hr 14:22 hrs 22.5 km/hr 6.4 km/hr 84.6 km
05/09/2012 16.7C 9.0C 12.1C 1020.5 hPa 1008.5 hPa 0.6 mm 0.0 mm/hr 00:00 hrs 22.5 km/hr 6.4 km/hr 81.7 km
06/09/2012 16.1C 8.9C 12.7C 1023.2 hPa 1019.9 hPa 0.0 mm 0.0 mm/hr 00:00 hrs 14.5 km/hr 3.2 km/hr 28.6 km
07/09/2012 17.7C 11.8C 14.1C 1021.4 hPa 1014.4 hPa 0.0 mm 0.0 mm/hr 00:00 hrs 20.9 km/hr 6.4 km/hr 57.7 km
08/09/2012 16.9C 11.3C 13.2C 1014.5 hPa 1002.1 hPa 4.2 mm 96.0 mm/hr 23:50 hrs 33.8 km/hr 9.7 km/hr 86.8 km
09/09/2012 16.8C 10.5C 13.0C 1006.4 hPa 1002.6 hPa 1.6 mm 16.2 mm/hr 16:46 hrs 24.1 km/hr 8.0 km/hr 70.1 km
10/09/2012 15.8C 9.9C 12.5C 1014.9 hPa 1006.0 hPa 0.6 mm 0.0 mm/hr 00:00 hrs 20.9 km/hr 6.4 km/hr 83.9 km
11/09/2012 15.1C 5.9C 10.8C 1017.1 hPa 1012.4 hPa 9.2 mm 131.0 mm/hr 07:02 hrs 19.3 km/hr 6.4 km/hr 71.4 km
12/09/2012 12.3C 3.4C 7.1C 1025.2 hPa 1016.6 hPa 1.8 mm 4.4 mm/hr 03:02 hrs 14.5 km/hr 4.8 km/hr 33.0 km
13/09/2012 14.5C 2.1C 8.0C 1026.1 hPa 1022.7 hPa 1.0 mm 17.6 mm/hr 19:53 hrs 9.7 km/hr 3.2 km/hr 15.0 km
14/09/2012 15.8C 4.7C 8.8C 1023.8 hPa 1020.6 hPa 0.2 mm 0.0 mm/hr 00:00 hrs 17.7 km/hr 6.4 km/hr 24.8 km
15/09/2012 15.0C 5.1C 10.9C 1021.2 hPa 1012.3 hPa 7.2 mm 20.4 mm/hr 19:05 hrs 30.6 km/hr 9.7 km/hr 66.3 km
16/09/2012 17.7C 9.6C 12.1C 1015.1 hPa 1009.3 hPa 8.8 mm 114.0 mm/hr 17:38 hrs 16.1 km/hr 4.8 km/hr 25.2 km
17/09/2012 16.5C 10.6C 12.5C 1018.2 hPa 1010.9 hPa 3.8 mm 49.2 mm/hr 05:15 hrs 17.7 km/hr 4.8 km/hr 63.8 km
18/09/2012 16.6C 5.8C 10.8C 1024.1 hPa 1018.1 hPa 0.4 mm 2.4 mm/hr 03:27 hrs 12.9 km/hr 3.2 km/hr 29.9 km
19/09/2012 15.8C 5.7C 9.3C 1022.6 hPa 1018.8 hPa 0.4 mm 0.0 mm/hr 00:00 hrs 11.3 km/hr 3.2 km/hr 8.1 km
20/09/2012 16.1C 5.9C 10.6C 1025.2 hPa 1019.5 hPa 0.8 mm 0.8 mm/hr 02:41 hrs 12.9 km/hr 3.2 km/hr 4.6 km
21/09/2012 14.9C 7.2C 10.8C 1030.5 hPa 1025.1 hPa 0.0 mm 0.0 mm/hr 00:00 hrs 20.9 km/hr 6.4 km/hr 56.9 km
22/09/2012 15.1C 5.8C 10.1C 1031.0 hPa 1029.0 hPa 0.0 mm 0.0 mm/hr 00:00 hrs 19.3 km/hr 4.8 km/hr 53.1 km
23/09/2012 16.1C 7.8C 10.9C 1029.5 hPa 1024.7 hPa 0.2 mm 0.0 mm/hr 00:00 hrs 22.5 km/hr 6.4 km/hr 62.8 km
24/09/2012 15.1C 8.3C 11.4C 1025.6 hPa 1023.8 hPa 0.0 mm 0.0 mm/hr 00:00 hrs 27.4 km/hr 6.4 km/hr 81.2 km
25/09/2012 16.6C 9.2C 12.4C 1025.1 hPa 1020.1 hPa 0.0 mm 0.0 mm/hr 00:00 hrs 19.3 km/hr 6.4 km/hr 75.3 km
26/09/2012 17.1C 9.9C 12.9C 1020.6 hPa 1016.8 hPa 0.0 mm 0.0 mm/hr 00:00 hrs 19.3 km/hr 6.4 km/hr 57.8 km
27/09/2012 15.9C 10.7C 13.2C 1018.4 hPa 1011.3 hPa 2.6 mm 7.6 mm/hr 23:12 hrs 20.9 km/hr 4.8 km/hr 56.9 km
28/09/2012 15.9C 10.4C 12.9C 1011.5 hPa 1004.5 hPa 7.2 mm 4.4 mm/hr 17:51 hrs 20.9 km/hr 4.8 km/hr 74.7 km
29/09/2012 20.9C 10.4C 14.9C 1013.3 hPa 1007.8 hPa 0.4 mm 0.0 mm/hr 00:00 hrs 16.1 km/hr 4.8 km/hr 20.5 km
30/09/2012 19.3C 10.4C 14.2C 1015.6 hPa 1011.7 hPa 0.0 mm 0.0 mm/hr 00:00 hrs 11.3 km/hr 3.2 km/hr 18.9 km
Back to top                        
2011 Temperature Pressure Rain Wind
Maximum Minimum Average Maximum Minimum Day Total Maximum Rain Rate High Gust Highest Av Run
C C C hPa hPa mm mm/hr time km/h km/h km
01/09/2011 14.8C 5.6C 9.9C 1014.1 hPa 1010.8 hPa 1.2 mm 30.8 mm/hr 07:59 hrs 16.1 km/hr 4.2 km/hr 34.7 km
02/09/2011 13.2C 5.0C 8.1C 1021.0 hPa 1013.4 hPa 5.4 mm 82.8 mm/hr 10:45 hrs 11.3 km/hr 3.4 km/hr 14.8 km
03/09/2011 14.1C 4.0C 9.0C 1025.5 hPa 1021.0 hPa 0.4 mm 0.0 mm/hr 00:00 hrs 17.7 km/hr 3.8 km/hr 24.6 km
04/09/2011 14.1C 6.9C 9.9C 1030.6 hPa 1025.3 hPa 1.0 mm 4.8 mm/hr 00:41 hrs 11.3 km/hr 3.1 km/hr 20.1 km
05/09/2011 17.8C 6.4C 10.7C 1034.2 hPa 1030.5 hPa 0.0 mm 0.0 mm/hr 00:00 hrs 9.7 km/hr 3.9 km/hr 19.2 km
06/09/2011 17.4C 6.9C 10.9C 1034.2 hPa 1030.5 hPa 0.0 mm 0.0 mm/hr 00:00 hrs 12.9 km/hr 5.1 km/hr 15.2 km
07/09/2011 15.7C 7.2C 10.6C 1031.0 hPa 1026.7 hPa 0.0 mm 0.0 mm/hr 00:00 hrs 8.0 km/hr 3.7 km/hr 5.9 km
08/09/2011 17.2C 7.5C 10.9C 1026.9 hPa 1021.5 hPa 0.0 mm 0.0 mm/hr 00:00 hrs 9.7 km/hr 3.6 km/hr 9.0 km
09/09/2011 17.4C 5.9C 10.4C 1021.7 hPa 1017.7 hPa 0.0 mm 0.0 mm/hr 00:00 hrs 12.9 km/hr 4.0 km/hr 17.0 km
10/09/2011 18.6C 6.8C 11.5C 1017.8 hPa 1008.0 hPa 0.0 mm 0.0 mm/hr 00:00 hrs 17.7 km/hr 5.4 km/hr 40.7 km
11/09/2011 14.9C 9.1C 12.0C 1008.5 hPa 994.1 hPa 37.6 mm 144.0 mm/hr 12:37 hrs 29.0 km/hr 8.7 km/hr 95.3 km
12/09/2011 14.9C 9.0C 11.4C 1000.0 hPa 995.8 hPa 11.4 mm 100.2 mm/hr 17:40 hrs 19.3 km/hr 5.4 km/hr 61.6 km
13/09/2011 14.2C 7.6C 10.5C 1008.8 hPa 997.7 hPa 10.8 mm 56.0 mm/hr 01:41 hrs 32.2 km/hr 6.9 km/hr 100.2 km
14/09/2011 14.6C 10.1C 11.6C 1010.7 hPa 1005.8 hPa 5.6 mm 53.4 mm/hr 04:28 hrs 27.4 km/hr 6.7 km/hr 116.0 km
15/09/2011 15.4C 9.2C 11.9C 1009.9 hPa 1004.5 hPa 12.0 mm 64.4 mm/hr 18:34 hrs 17.7 km/hr 4.7 km/hr 70.3 km
16/09/2011 15.3C 8.7C 10.6C 1009.8 hPa 1006.1 hPa 3.4 mm 79.4 mm/hr 02:16 hrs 24.1 km/hr 5.7 km/hr 68.2 km
17/09/2011 14.9C 7.7C 10.9C 1011.1 hPa 1008.9 hPa 6.4 mm 69.0 mm/hr 17:37 hrs 20.9 km/hr 3.9 km/hr 27.9 km
18/09/2011 15.4C 8.2C 10.3C 1013.9 hPa 1010.1 hPa 7.2 mm 77.8 mm/hr 14:48 hrs 11.3 km/hr 4.2 km/hr 19.5 km
19/09/2011 15.4C 7.6C 10.8C 1014.0 hPa 1004.9 hPa 6.0 mm 26.6 mm/hr 14:25 hrs 20.9 km/hr 6.2 km/hr 33.0 km
20/09/2011 14.0C 5.3C 9.8C 1018.3 hPa 1008.0 hPa 0.2 mm 0.0 mm/hr 00:00 hrs 24.1 km/hr 6.4 km/hr 81.6 km
21/09/2011 14.2C 4.4C 9.5C 1018.6 hPa 1015.8 hPa 0.0 mm 0.0 mm/hr 00:00 hrs 12.9 km/hr 3.3 km/hr 18.8 km
22/09/2011 15.3C 8.3C 10.9C 1016.6 hPa 1011.4 hPa 0.4 mm 0.0 mm/hr 00:00 hrs 8.0 km/hr 2.3 km/hr 11.9 km
23/09/2011 17.6C 7.9C 11.8C 1017.9 hPa 1013.4 hPa 0.0 mm 0.0 mm/hr 00:00 hrs 11.3 km/hr 4.0 km/hr 21.8 km
24/09/2011 17.8C 7.2C 12.2C 1017.8 hPa 1014.3 hPa 0.0 mm 0.0 mm/hr 00:00 hrs 14.5 km/hr 4.3 km/hr 21.9 km
25/09/2011 12.1C 7.0C 10.5C 1014.6 hPa 1010.9 hPa 14.8 mm 72.4 mm/hr 10:31 hrs 12.9 km/hr 4.2 km/hr 26.6 km
26/09/2011 14.5C 5.2C 9.1C 1022.0 hPa 1013.8 hPa 2.0 mm 4.4 mm/hr 08:09 hrs 16.1 km/hr 4.3 km/hr 38.0 km
27/09/2011 16.1C 4.6C 9.3C 1023.0 hPa 1020.4 hPa 0.0 mm 0.0 mm/hr 00:00 hrs 11.3 km/hr 3.0 km/hr 13.7 km
28/09/2011 16.2C 5.4C 9.7C 1021.6 hPa 1016.7 hPa 0.0 mm 0.0 mm/hr 00:00 hrs 9.7 km/hr 2.8 km/hr 14.0 km
29/09/2011 18.3C 6.1C 11.5C 1018.2 hPa 1015.2 hPa 0.0 mm 0.0 mm/hr 00:00 hrs 11.3 km/hr 4.3 km/hr 28.7 km
30/09/2011 17.7C 6.9C 11.9C 1021.2 hPa 1017.8 hPa 0.0 mm 0.0 mm/hr 00:00 hrs 25.7 km/hr 8.2 km/hr 79.0 km
Back to top                        
2010 Temperature Pressure Rain Wind
Maximum Minimum Average Maximum Minimum Day Total Maximum Rain Rate High Gust Highest Av Run
C C C hPa hPa mm mm/hr time km/h km/h km
01/09/2010 17.6C 6.4C 10.2C 1018.0 hPa 1011.5 hPa 0.2 mm 0.0 mm/hr 00:00 hrs 9.7 km/hr 4.5 km/hr 9.0 km
02/09/2010 12.9C 6.8C 10.2C 1017.9 hPa 1005.9 hPa 7.8 mm 69.4 mm/hr 19:47 hrs 22.5 km/hr 8.2 km/hr 61.5 km
03/09/2010 14.3C 7.2C 10.0C 1011.5 hPa 1004.9 hPa 3.2 mm 13.2 mm/hr 16:26 hrs 27.4 km/hr 7.7 km/hr 68.0 km
04/09/2010 14.5C 6.9C 10.3C 1028.8 hPa 1011.1 hPa 1.6 mm 9.4 mm/hr 01:15 hrs 22.5 km/hr 7.2 km/hr 76.4 km
05/09/2010 14.6C 6.5C 11.0C 1029.9 hPa 1024.4 hPa 0.0 mm 0.0 mm/hr 00:00 hrs 17.7 km/hr 12.9 km/hr 33.5 km
06/09/2010 15.8C 11.5C 14.0C 1024.5 hPa 1016.5 hPa 5.0 mm 6.8 mm/hr 21:46 hrs 40.2 km/hr 9.9 km/hr 134.5 km
07/09/2010 14.9C 11.1C 13.2C 1020.0 hPa 1014.3 hPa 15.8 mm 13.2 mm/hr 05:05 hrs 25.7 km/hr 6.9 km/hr 29.1 km
08/09/2010 19.4C 9.6C 13.4C 1021.8 hPa 1019.2 hPa 0.0 mm 0.0 mm/hr 00:00 hrs 8.0 km/hr 2.8 km/hr 10.7 km
09/09/2010 16.1C 10.7C 12.9C 1020.9 hPa 1011.7 hPa 2.0 mm 9.2 mm/hr 10:08 hrs 11.3 km/hr 4.2 km/hr 17.4 km
10/09/2010 15.1C 8.0C 11.7C 1021.6 hPa 1015.0 hPa 0.0 mm 0.0 mm/hr 00:00 hrs 11.3 km/hr 3.2 km/hr 19.1 km
11/09/2010 15.3C 8.0C 11.8C 1021.5 hPa 1009.9 hPa 18.4 mm 12.6 mm/hr 21:06 hrs 17.7 km/hr 5.9 km/hr 53.6 km
12/09/2010 16.5C 12.3C 14.4C 1010.8 hPa 1006.3 hPa 8.2 mm 12.8 mm/hr 05:45 hrs 20.9 km/hr 6.4 km/hr 53.8 km
13/09/2010 16.6C 10.0C 12.4C 1014.8 hPa 1010.6 hPa 2.4 mm 9.4 mm/hr 05:11 hrs 12.9 km/hr 4.1 km/hr 30.7 km
14/09/2010 16.6C 8.7C 12.4C 1014.4 hPa 1009.8 hPa 13.6 mm 70.2 mm/hr 19:08 hrs 24.1 km/hr 8.8 km/hr 59.1 km
15/09/2010 15.1C 6.9C 10.8C 1015.1 hPa 1009.6 hPa 0.8 mm 11.8 mm/hr 01:37 hrs 12.9 km/hr 4.7 km/hr 29.4 km
16/09/2010 17.1C 6.9C 11.7C 1013.4 hPa 998.2 hPa 12.4 mm 15.0 mm/hr 07:39 hrs 29.0 km/hr 8.3 km/hr 59.3 km
17/09/2010 16.3C 8.4C 11.9C 1005.6 hPa 995.3 hPa 5.8 mm 69.8 mm/hr 18:30 hrs 35.4 km/hr 9.5 km/hr 108.0 km
18/09/2010 15.3C 8.4C 12.1C 1006.8 hPa 1000.3 hPa 7.0 mm 59.4 mm/hr 13:19 hrs 24.1 km/hr 6.9 km/hr 98.7 km
19/09/2010 15.0C 8.6C 12.4C 1012.8 hPa 1005.3 hPa 8.4 mm 93.0 mm/hr 09:54 hrs 24.1 km/hr 6.4 km/hr 83.4 km
20/09/2010 15.8C 8.6C 12.1C 1013.0 hPa 1005.7 hPa 1.2 mm 19.0 mm/hr 23:09 hrs 32.2 km/hr 6.2 km/hr 88.0 km
21/09/2010 16.1C 9.6C 12.1C 1005.8 hPa 1002.6 hPa 6.4 mm 48.2 mm/hr 04:38 hrs 24.1 km/hr 6.7 km/hr 80.3 km
22/09/2010 12.4C 6.2C 10.2C 1011.2 hPa 997.2 hPa 8.8 mm 39.4 mm/hr 02:56 hrs 29.0 km/hr 9.8 km/hr 113.5 km
23/09/2010 14.2C 7.8C 11.1C 1017.7 hPa 1010.4 hPa 8.0 mm 84.0 mm/hr 10:15 hrs 20.9 km/hr 6.8 km/hr 75.3 km
24/09/2010 16.6C 7.3C 12.0C 1019.0 hPa 1016.5 hPa 0.6 mm 2.8 mm/hr 08:16 hrs 19.3 km/hr 5.5 km/hr 47.4 km
25/09/2010 15.4C 11.4C 13.1C 1023.4 hPa 1016.5 hPa 2.8 mm 65.8 mm/hr 07:16 hrs 17.7 km/hr 4.6 km/hr 53.6 km
26/09/2010 17.2C 11.6C 14.0C 1025.0 hPa 1022.4 hPa 0.0 mm 0.0 mm/hr 00:00 hrs 17.7 km/hr 4.2 km/hr 36.4 km
27/09/2010 19.1C 10.8C 14.4C 1025.9 hPa 1022.7 hPa 0.0 mm 0.0 mm/hr 00:00 hrs 11.3 km/hr 4.3 km/hr 21.2 km
28/09/2010 21.0C 10.1C 14.3C 1024.5 hPa 1020.3 hPa 0.0 mm 0.0 mm/hr 00:00 hrs 12.9 km/hr 4.6 km/hr 16.9 km
29/09/2010 21.0C 10.3C 14.7C 1021.9 hPa 1019.1 hPa 1.8 mm 16.2 mm/hr 16:25 hrs 9.7 km/hr 4.2 km/hr 15.9 km
30/09/2010 18.4C 12.2C 15.5C 1020.1 hPa 1013.8 hPa 2.8 mm 6.8 mm/hr 20:40 hrs 19.3 km/hr 6.5 km/hr 59.8 km
Back to top                        
2009 Temperature Pressure Rain Wind
Maximum Minimum Average Maximum Minimum Day Total Maximum Rain Rate High Gust Highest Av Run
C C C hPa hPa mm mm/hr time km/h km/h km
01/09/2009 15.2C 8.7C 12.0C 1017.0 hPa 1017.0 hPa 0.4 mm          
02/09/2009 16.5C 9.9C 13.2C 1022.0 hPa 1018.0 hPa 1.3 mm          
03/09/2009 15.0C 7.4C 11.2C 1025.0 hPa 1024.0 hPa 0.0 mm          
04/09/2009 13.1C 5.5C 9.3C 1030.0 hPa 1029.0 hPa 0.0 mm          
05/09/2009 13.7C 7.3C 10.5C 1027.0 hPa 1026.0 hPa 0.0 mm          
06/09/2009 16.2C 5.9C 11.1C 1025.0 hPa 1025.0 hPa 0.0 mm          
07/09/2009 16.8C 6.2C 11.5C 1028.0 hPa 1027.0 hPa 0.0 mm          
08/09/2009 17.3C 7.0C 12.2C 1031.0 hPa 1031.0 hPa 0.0 mm          
09/09/2009 16.1C 7.2C 11.7C 1033.0 hPa 1032.0 hPa 0.0 mm          
10/09/2009 15.8C 10.2C 13.0C 1031.0 hPa 1025.0 hPa 0.0 mm          
11/09/2009 14.9C 12.1C 13.5C 1026.0 hPa 1022.0 hPa 4.9 mm          
12/09/2009 14.4C 12.0C 13.2C 1020.0 hPa 1019.0 hPa 4.5 mm          
13/09/2009 18.0C 12.7C 15.4C 1025.0 hPa 1024.0 hPa 2.2 mm          
14/09/2009 18.6C 8.5C 13.6C 1025.0 hPa 1022.0 hPa 0.0 mm          
15/09/2009 16.6C 9.1C 12.9C 1022.0 hPa 1021.0 hPa 0.0 mm          
16/09/2009 18.7C 9.4C 14.1C 1022.0 hPa 1021.0 hPa 0.0 mm          
17/09/2009 17.5C 10.4C 14.0C 1021.0 hPa 1020.0 hPa 0.0 mm          
18/09/2009 16.0C 10.7C 13.4C 1020.0 hPa 1018.0 hPa 0.0 mm          
19/09/2009 14.7C 10.6C 12.7C 1017.0 hPa 1016.0 hPa 0.4 mm          
20/09/2009 14.8C 8.6C 11.7C 1018.0 hPa 1016.0 hPa 0.0 mm          
21/09/2009 16.4C 8.5C 12.5C 1013.0 hPa 1008.0 hPa 2.7 mm          
22/09/2009 16.0C 12.0C 14.0C 1012.0 hPa 1008.0 hPa 4.5 mm          
23/09/2009 15.0C 12.6C 13.8C 1010.0 hPa 1006.0 hPa 16.6 mm          
24/09/2009 16.8C 13.5C 15.2C 1006.0 hPa 1001.0 hPa 18.4 mm          
25/09/2009 15.7C 12.9C 14.3C 1000.0 hPa 999.0 hPa 15.3 mm          
26/09/2009 15.8C 11.8C 13.8C 999.0 hPa 1004.0 hPa 11.7 mm          
27/09/2009 16.0C 10.0C 13.0C 1009.0 hPa 1007.0 hPa 0.4 mm          
28/09/2009 16.0C 11.1C 13.6C 1004.0 hPa 1003.0 hPa 15.7 mm          
29/09/2009 16.3C 9.8C 13.1C 1005.0 hPa 1001.0 hPa 0.4 mm          
30/09/2009 15.0C 11.0C 13.0C 1000.0 hPa 999.0 hPa 15.7 mm          
Back to top                        
2008 Temperature Pressure Rain Wind
Maximum Minimum Average Maximum Minimum Day Total Maximum Rain Rate High Gust Highest Av Run
C C C hPa hPa mm mm/hr time km/h km/h km
01/09/2008 15.0C 7.6C 11.3C 1038.0 hPa 1038.0 hPa 0.0 mm          
02/09/2008 15.4C 9.2C 12.3C 1038.0 hPa 1036.0 hPa 0.0 mm          
03/09/2008 16.4C 9.2C 12.8C 1034.0 hPa 1031.0 hPa 0.0 mm          
04/09/2008 17.5C 10.8C 14.2C 1028.0 hPa 1025.0 hPa 0.0 mm          
05/09/2008 16.5C 9.4C 13.0C 1023.0 hPa 1022.0 hPa 2.2 mm          
06/09/2008 15.8C 7.5C 11.7C 1025.0 hPa 1023.0 hPa 0.4 mm          
07/09/2008 15.2C 6.5C 10.9C 1025.0 hPa 1022.0 hPa 0.0 mm          
08/09/2008 15.0C 11.2C 13.1C 1015.0 hPa 1009.0 hPa 10.3 mm          
09/09/2008 15.5C 12.4C 14.0C 1008.0 hPa 1006.0 hPa 7.0 mm          
10/09/2008 14.5C 8.5C 11.5C 1006.0 hPa 1003.0 hPa 5.0 mm          
11/09/2008 13.9C 10.6C 12.3C 1010.0 hPa 1001.0 hPa 4.0 mm          
12/09/2008 15.9C 10.0C 13.0C 1018.0 hPa 1016.0 hPa 1.4 mm          
13/09/2008 17.0C 8.7C 12.9C 1024.0 hPa 1022.0 hPa 0.4 mm          
14/09/2008 16.3C 8.7C 12.5C 1025.0 hPa 1024.0 hPa 0.4 mm          
15/09/2008 17.6C 8.6C 13.1C 1025.0 hPa 1024.0 hPa 0.0 mm          
16/09/2008 17.6C 9.5C 13.6C 1021.0 hPa 1017.0 hPa 0.0 mm          
17/09/2008 18.8C 8.6C 13.7C 1016.0 hPa 1013.0 hPa 7.6 mm          
18/09/2008 14.8C 8.9C 11.9C 1007.0 hPa 1005.0 hPa 5.8 mm          
19/09/2008 15.0C 9.5C 12.3C 1014.0 hPa 1011.0 hPa 9.0 mm          
20/09/2008 18.1C 8.5C 13.3C 1021.0 hPa 1018.0 hPa 0.0 mm          
21/09/2008 17.4C 7.8C 12.6C 1022.0 hPa 1022.0 hPa 0.0 mm          
22/09/2008 18.4C 11.4C 14.9C 1026.0 hPa 1024.0 hPa 0.9 mm          
23/09/2008 16.6C 12.2C 14.4C 1026.0 hPa 1025.0 hPa 0.0 mm          
24/09/2008 17.0C 12.4C 14.7C 1025.0 hPa 1025.0 hPa 0.0 mm          
25/09/2008 18.2C 10.9C 14.6C 1028.0 hPa 1027.0 hPa 0.0 mm          
26/09/2008 17.7C 8.4C 13.1C 1027.0 hPa 1025.0 hPa 0.0 mm          
27/09/2008 17.0C 7.9C 12.5C 1022.0 hPa 1016.0 hPa 2.2 mm          
28/09/2008 16.0C 8.8C 12.4C 1017.0 hPa 1016.0 hPa 1.3 mm          
29/09/2008 16.1C 7.2C 11.7C 1013.0 hPa 1008.0 hPa 9.4 mm          
30/09/2008 15.0C 11.2C 13.1C 1007.0 hPa 1003.0 hPa 3.1 mm          
Back to top                        
2007 Temperature Pressure Rain Wind
Maximum Minimum Average Maximum Minimum Day Total Maximum Rain Rate High Gust Highest Av Run
C C C hPa hPa mm mm/hr time km/h km/h km
01/09/2007 15.3C 10.5C 12.9C 1028.0 hPa 1027.0 hPa 0.0 mm          
02/09/2007 16.6C 12.1C 14.4C 1026.0 hPa 1024.0 hPa 7.2 mm          
03/09/2007 13.3C 9.2C 11.3C 1027.0 hPa 1025.0 hPa 0.4 mm          
04/09/2007 15.3C 9.2C 12.3C 1024.0 hPa 1022.0 hPa 12.6 mm          
05/09/2007 12.0C 10.7C 11.4C 1030.0 hPa 1024.0 hPa 10.8 mm          
06/09/2007 13.7C 4.9C 9.3C 1034.0 hPa 1034.0 hPa 0.0 mm          
07/09/2007 13.5C 5.3C 9.4C 1032.0 hPa 1028.0 hPa 0.0 mm          
08/09/2007 14.1C 8.6C 11.4C 1025.0 hPa 1020.0 hPa 0.0 mm          
09/09/2007 11.7C 9.3C 10.5C 1011.0 hPa 1001.0 hPa 8.5 mm          
10/09/2007 14.4C 9.7C 12.1C 1008.0 hPa 1002.0 hPa 1.3 mm          
11/09/2007 15.0C 8.2C 11.6C 1019.0 hPa 1015.0 hPa 1.8 mm          
12/09/2007 16.0C 7.3C 11.7C 1028.0 hPa 1025.0 hPa 0.0 mm          
13/09/2007 17.7C 8.2C 13.0C 1030.0 hPa 1028.0 hPa 0.0 mm          
14/09/2007 17.2C 9.7C 13.5C 1028.0 hPa 1025.0 hPa 0.0 mm          
15/09/2007 18.5C 10.3C 14.4C 1025.0 hPa 1022.0 hPa 8.5 mm          
16/09/2007 18.5C 13.3C 15.9C 1019.0 hPa 1017.0 hPa 0.0 mm          
17/09/2007 17.9C 11.0C 14.5C 1016.0 hPa 1015.0 hPa 0.0 mm          
18/09/2007 17.8C 11.3C 14.6C 1019.0 hPa 1018.0 hPa 0.9 mm          
19/09/2007 17.8C 10.6C 14.2C 1018.0 hPa 1015.0 hPa 0.0 mm          
20/09/2007 16.7C 11.8C 14.3C 1014.0 hPa 1012.0 hPa 0.0 mm          
21/09/2007 16.0C 11.3C 13.7C 1015.0 hPa 1014.0 hPa 0.0 mm          
22/09/2007 20.5C 8.8C 14.7C 1012.0 hPa 1010.0 hPa 0.0 mm          
23/09/2007 21.4C 12.4C 16.9C 1010.0 hPa 1008.0 hPa 9.4 mm          
24/09/2007 21.4C 11.0C 16.2C 1008.0 hPa 1005.0 hPa 4.9 mm          
25/09/2007 20.0C 8.8C 14.4C 1009.0 hPa 1002.0 hPa 0.0 mm          
26/09/2007 16.6C 9.2C 12.9C 1014.0 hPa 1013.0 hPa 1.3 mm          
27/09/2007 15.0C 7.0C 11.0C 1023.0 hPa 1019.0 hPa 0.0 mm          
28/09/2007 16.0C 6.1C 11.1C 1027.0 hPa 1023.0 hPa 0.0 mm          
29/09/2007 16.0C 9.0C 12.5C 1022.0 hPa 1018.0 hPa 0.0 mm          
30/09/2007 16.0C 9.0C 12.5C 1013.0 hPa 1010.0 hPa 8.1 mm          
Back to top